Time;durP1;ratioP1;P1;durP2;ratioP2;P2;SDS_P1;SDS_P2;PMS_P1;PMS_P2;Temp;Humidity;BMP_temperature;BMP_pressure;BME280_temperature;BME280_humidity;BME280_pressure;Samples;Min_cycle;Max_cycle;Signal;HPM_P1;HPM_P2
2023/06/12 00:01:19;;;;;;;8.60;2.10;;;18.60;90.10;;;;;;4917064;29;20050;-87
2023/06/12 00:03:47;;;;;;;10.80;2.60;;;18.60;90.20;;;;;;4933480;29;20098;-86
2023/06/12 00:06:16;;;;;;;6.57;2.08;;;18.60;90.20;;;;;;4917785;29;20047;-87
2023/06/12 00:08:43;;;;;;;13.80;2.35;;;18.50;90.30;;;;;;4917241;29;20045;-86
2023/06/12 00:11:12;;;;;;;7.78;2.47;;;18.50;90.30;;;;;;4917207;29;20044;-86
2023/06/12 00:13:41;;;;;;;7.70;2.13;;;18.50;90.40;;;;;;4917588;29;20591;-87
2023/06/12 00:16:07;;;;;;;10.23;2.10;;;18.40;90.50;;;;;;4920442;28;20479;-86
2023/06/12 00:18:32;;;;;;;9.93;2.15;;;18.40;90.60;;;;;;4929179;29;20097;-87
2023/06/12 00:20:58;;;;;;;5.63;2.17;;;18.30;90.80;;;;;;4918559;28;20142;-87
2023/06/12 00:23:24;;;;;;;9.98;2.08;;;18.30;91.00;;;;;;4902909;29;20051;-86
2023/06/12 00:25:50;;;;;;;7.97;2.38;;;18.20;91.10;;;;;;4890272;29;20062;-87
2023/06/12 00:28:15;;;;;;;5.38;1.90;;;18.20;91.30;;;;;;4914359;29;20570;-88
2023/06/12 00:30:41;;;;;;;7.68;2.33;;;18.10;91.50;;;;;;4897879;29;20831;-86
2023/06/12 00:33:07;;;;;;;7.82;1.92;;;18.10;91.60;;;;;;4898125;29;20048;-86
2023/06/12 00:35:32;;;;;;;10.23;2.03;;;18.10;91.80;;;;;;4913248;29;20407;-85
2023/06/12 00:37:59;;;;;;;5.93;1.83;;;18.00;91.90;;;;;;4900847;29;20082;-86
2023/06/12 00:40:25;;;;;;;8.18;2.03;;;18.00;92.00;;;;;;4896680;29;20063;-86
2023/06/12 00:42:54;;;;;;;10.88;2.35;;;18.00;92.20;;;;;;4900385;29;20047;-87
2023/06/12 00:45:21;;;;;;;8.23;2.20;;;17.90;92.40;;;;;;4912820;29;20059;-85
2023/06/12 00:47:53;;;;;;;7.32;2.10;;;17.80;92.60;;;;;;4914514;29;20251;-87
2023/06/12 00:50:20;;;;;;;14.95;2.33;;;17.70;92.80;;;;;;4896869;29;20058;-86
2023/06/12 00:52:48;;;;;;;12.55;2.28;;;17.70;93.00;;;;;;4893581;29;20339;-87
2023/06/12 00:55:15;;;;;;;12.43;2.38;;;17.70;93.10;;;;;;4890528;29;20047;-87
2023/06/12 00:57:47;;;;;;;4.50;1.83;;;17.60;93.30;;;;;;4885220;29;20079;-87
2023/06/12 01:00:17;;;;;;;4.90;2.28;;;17.60;93.50;;;;;;4897683;29;20052;-87
2023/06/12 01:02:50;;;;;;;5.72;2.30;;;17.60;93.70;;;;;;4898627;29;20054;-86
2023/06/12 01:05:20;;;;;;;4.72;2.05;;;17.60;94.00;;;;;;4897209;29;20055;-86
2023/06/12 01:07:48;;;;;;;14.27;2.60;;;17.50;94.10;;;;;;4913654;29;20051;-86
2023/06/12 01:10:25;;;;;;;9.50;2.15;;;17.50;94.40;;;;;;4911774;29;20075;-86
2023/06/12 01:12:53;;;;;;;6.93;2.00;;;17.40;94.70;;;;;;4913670;29;20123;-86
2023/06/12 01:15:18;;;;;;;10.13;2.20;;;17.40;95.00;;;;;;4897589;29;20059;-86
2023/06/12 01:17:44;;;;;;;8.57;2.42;;;17.30;95.30;;;;;;4897774;29;20048;-86
2023/06/12 01:20:12;;;;;;;19.05;2.90;;;17.30;95.60;;;;;;4912097;29;20046;-86
2023/06/12 01:22:46;;;;;;;6.25;2.00;;;17.30;95.90;;;;;;4897799;29;20051;-86
2023/06/12 01:25:23;;;;;;;8.30;2.50;;;17.20;96.30;;;;;;4896378;29;20059;-86
2023/06/12 01:28:13;;;;;;;7.97;2.35;;;17.20;96.70;;;;;;4898196;29;20126;-86
2023/06/12 01:30:54;;;;;;;8.40;2.22;;;17.10;97.10;;;;;;4904040;29;20504;-87
2023/06/12 01:33:30;;;;;;;14.80;3.25;;;17.10;97.50;;;;;;4896803;29;20099;-87
2023/06/12 01:35:58;;;;;;;9.27;2.30;;;17.00;97.90;;;;;;4895226;29;20044;-87
2023/06/12 01:38:29;;;;;;;10.20;2.25;;;16.90;98.50;;;;;;4885369;29;20385;-87
2023/06/12 01:40:57;;;;;;;9.35;2.40;;;16.90;98.90;;;;;;4896558;29;20054;-87
2023/06/12 01:43:23;;;;;;;6.38;2.10;;;16.80;99.40;;;;;;4897022;29;20048;-87
2023/06/12 01:45:49;;;;;;;8.80;2.20;;;16.80;99.90;;;;;;4897422;29;20044;-86
2023/06/12 01:48:16;;;;;;;10.13;2.33;;;16.70;99.90;;;;;;4896543;29;20055;-86
2023/06/12 01:50:42;;;;;;;11.00;2.72;;;16.70;99.90;;;;;;4897235;29;20134;-87
2023/06/12 01:53:10;;;;;;;5.75;2.20;;;16.60;99.90;;;;;;4897079;29;20051;-86
2023/06/12 01:55:37;;;;;;;10.75;2.15;;;16.60;99.90;;;;;;4896483;29;20590;-86
2023/06/12 01:58:03;;;;;;;11.90;2.47;;;16.50;99.90;;;;;;4898139;29;20056;-87
2023/06/12 02:00:29;;;;;;;7.60;2.38;;;16.50;99.90;;;;;;4910308;29;20051;-86
2023/06/12 02:02:56;;;;;;;7.63;2.28;;;16.50;99.90;;;;;;4887621;29;20035;-86
2023/06/12 02:05:22;;;;;;;8.82;2.88;;;16.50;99.90;;;;;;4911697;29;20052;-86
2023/06/12 02:07:48;;;;;;;7.90;2.38;;;16.50;99.90;;;;;;4889209;29;20488;-86
2023/06/12 02:10:15;;;;;;;8.60;2.60;;;16.50;99.90;;;;;;4892075;29;20087;-86
2023/06/12 02:12:43;;;;;;;14.65;2.65;;;16.40;99.90;;;;;;4897078;29;20047;-86
2023/06/12 02:15:11;;;;;;;14.32;2.75;;;16.40;99.90;;;;;;4897081;29;20131;-86
2023/06/12 02:17:36;;;;;;;9.18;3.22;;;16.40;99.90;;;;;;4897301;29;20194;-86
2023/06/12 02:20:03;;;;;;;7.25;2.90;;;16.30;99.90;;;;;;4897495;29;20550;-87
2023/06/12 02:22:29;;;;;;;14.55;2.97;;;16.30;99.90;;;;;;4902026;29;20055;-86
2023/06/12 02:24:55;;;;;;;7.70;2.63;;;16.30;99.90;;;;;;4931299;29;20054;-87
2023/06/12 02:27:20;;;;;;;10.18;2.85;;;16.20;99.90;;;;;;4918086;29;20429;-86
2023/06/12 02:29:46;;;;;;;12.68;3.05;;;16.20;99.90;;;;;;4934215;29;20039;-87
2023/06/12 02:32:12;;;;;;;10.48;2.58;;;16.20;99.90;;;;;;4919747;29;20047;-86
2023/06/12 02:34:38;;;;;;;9.98;3.17;;;16.20;99.90;;;;;;4933918;29;20055;-87
2023/06/12 02:37:04;;;;;;;8.20;2.67;;;16.10;99.90;;;;;;4915263;29;20054;-86
2023/06/12 02:39:30;;;;;;;8.23;3.05;;;16.10;99.90;;;;;;4915731;29;20054;-86
2023/06/12 02:41:55;;;;;;;10.43;2.95;;;16.00;99.90;;;;;;4925592;29;20114;-87
2023/06/12 02:44:21;;;;;;;10.23;2.83;;;16.00;99.90;;;;;;4934179;29;20043;-87
2023/06/12 02:46:51;;;;;;;9.38;2.78;;;15.90;99.90;;;;;;4919726;29;20407;-87
2023/06/12 02:49:19;;;;;;;8.90;2.85;;;15.90;99.90;;;;;;4917092;29;20048;-87
2023/06/12 02:51:45;;;;;;;7.85;2.60;;;15.90;99.90;;;;;;4919307;29;20492;-87
2023/06/12 02:54:12;;;;;;;15.23;2.63;;;15.80;99.90;;;;;;4933209;29;20039;-87
2023/06/12 02:56:41;;;;;;;8.40;3.10;;;15.80;99.90;;;;;;4919118;29;20452;-87
2023/06/12 02:59:08;;;;;;;6.68;2.75;;;15.70;99.90;;;;;;4919066;29;20074;-87
2023/06/12 03:01:35;;;;;;;10.98;2.78;;;15.70;99.90;;;;;;4934625;29;20039;-87
2023/06/12 03:04:01;;;;;;;7.93;2.60;;;15.60;99.90;;;;;;4917765;29;20073;-87
2023/06/12 03:06:28;;;;;;;10.60;3.13;;;15.50;99.90;;;;;;4919243;29;20040;-87
2023/06/12 03:08:55;;;;;;;11.85;3.03;;;15.50;99.90;;;;;;4918370;29;20039;-86
2023/06/12 03:11:22;;;;;;;12.15;3.05;;;15.50;99.90;;;;;;4933853;29;20553;-87
2023/06/12 03:13:47;;;;;;;10.77;3.17;;;15.50;99.90;;;;;;4918873;29;20047;-86
2023/06/12 03:16:14;;;;;;;9.88;3.15;;;15.50;99.90;;;;;;4934246;29;20408;-86
2023/06/12 03:18:40;;;;;;;7.88;2.83;;;15.50;99.90;;;;;;4918496;29;20047;-87
2023/06/12 03:21:06;;;;;;;9.23;3.17;;;15.50;99.90;;;;;;4918559;29;20043;-87
2023/06/12 03:23:32;;;;;;;10.40;2.80;;;15.50;99.90;;;;;;4919744;29;20044;-87
2023/06/12 03:25:57;;;;;;;10.27;3.10;;;15.50;99.90;;;;;;4914078;29;20071;-87
2023/06/12 03:28:23;;;;;;;11.27;3.15;;;15.50;99.90;;;;;;4915594;29;20460;-87
2023/06/12 03:30:49;;;;;;;8.40;2.92;;;15.50;99.90;;;;;;4916109;29;20059;-87
2023/06/12 03:33:15;;;;;;;10.73;3.13;;;15.50;99.90;;;;;;4914546;29;20083;-87
2023/06/12 03:35:41;;;;;;;10.85;3.17;;;15.50;99.90;;;;;;4912383;29;20512;-87
2023/06/12 03:38:07;;;;;;;9.98;2.75;;;15.50;99.90;;;;;;4929148;29;20040;-87
2023/06/12 03:40:33;;;;;;;13.40;3.15;;;15.60;99.90;;;;;;4913685;29;20044;-86
2023/06/12 03:42:58;;;;;;;7.82;2.70;;;15.60;99.90;;;;;;4914685;29;20485;-87
2023/06/12 03:45:24;;;;;;;11.27;3.58;;;15.60;99.90;;;;;;4914483;29;20048;-86
2023/06/12 03:47:49;;;;;;;8.52;3.40;;;15.60;99.90;;;;;;4914608;29;20036;-87
2023/06/12 03:50:16;;;;;;;9.48;3.13;;;15.60;99.90;;;;;;4914569;29;20048;-87
2023/06/12 03:52:42;;;;;;;10.85;3.47;;;15.60;99.90;;;;;;4914009;29;20511;-86
2023/06/12 03:55:08;;;;;;;13.27;3.50;;;15.60;99.90;;;;;;4913866;29;20146;-87
2023/06/12 03:57:34;;;;;;;10.20;3.17;;;15.60;99.90;;;;;;4911126;29;20062;-87
2023/06/12 04:00:00;;;;;;;9.00;3.30;;;15.60;99.90;;;;;;4914247;29;20078;-87
2023/06/12 04:02:26;;;;;;;12.30;3.55;;;15.70;99.90;;;;;;4914426;29;20047;-87
2023/06/12 04:04:52;;;;;;;12.98;3.35;;;15.70;99.90;;;;;;4916005;29;20190;-88
2023/06/12 04:07:18;;;;;;;12.30;3.70;;;15.70;99.90;;;;;;4913925;29;20095;-88
2023/06/12 04:09:44;;;;;;;5.95;2.97;;;15.70;99.90;;;;;;4913576;29;20047;-86
2023/06/12 04:12:10;;;;;;;9.10;3.25;;;15.80;99.90;;;;;;4914607;29;20039;-87
2023/06/12 04:14:36;;;;;;;14.10;3.70;;;15.80;99.90;;;;;;4898250;29;20062;-87
2023/06/12 04:17:02;;;;;;;13.20;3.67;;;15.80;99.90;;;;;;4902439;29;20039;-87
2023/06/12 04:19:27;;;;;;;10.48;3.40;;;15.90;99.90;;;;;;4914214;29;20106;-87
2023/06/12 04:21:54;;;;;;;10.85;3.15;;;15.90;99.90;;;;;;4916500;29;20036;-89
2023/06/12 04:24:21;;;;;;;8.82;3.20;;;15.90;99.90;;;;;;4918263;29;20079;-88
2023/06/12 04:26:48;;;;;;;14.63;3.40;;;16.00;99.90;;;;;;4902358;29;20047;-87
2023/06/12 04:29:15;;;;;;;9.05;2.90;;;16.00;99.90;;;;;;4910307;29;20059;-89
2023/06/12 04:31:41;;;;;;;8.73;3.53;;;16.00;99.90;;;;;;4918351;29;20122;-87
2023/06/12 04:34:07;;;;;;;10.70;3.28;;;16.10;99.90;;;;;;4917609;29;20069;-87
2023/06/12 04:36:37;;;;;;;7.05;3.53;;;16.10;99.90;;;;;;4910384;29;20468;-88
2023/06/12 04:39:04;;;;;;;14.10;3.97;;;16.10;99.90;;;;;;4909506;29;20563;-88
2023/06/12 04:41:32;;;;;;;12.57;3.40;;;16.20;99.90;;;;;;4917636;29;20053;-88
2023/06/12 04:43:58;;;;;;;8.55;3.65;;;16.20;99.90;;;;;;4917398;29;20442;-88
2023/06/12 04:46:25;;;;;;;10.88;3.40;;;16.30;99.90;;;;;;4917936;29;20054;-88
2023/06/12 04:48:51;;;;;;;11.25;3.35;;;16.30;99.90;;;;;;4924449;29;20043;-87
2023/06/12 04:51:18;;;;;;;7.60;3.15;;;16.40;99.90;;;;;;4918834;28;20097;-88
2023/06/12 04:53:47;;;;;;;8.35;3.40;;;16.40;99.90;;;;;;4918333;29;20138;-88
2023/06/12 04:56:20;;;;;;;11.25;3.78;;;16.50;99.90;;;;;;4917009;29;20043;-88
2023/06/12 04:58:46;;;;;;;10.63;3.72;;;16.60;99.90;;;;;;4918062;29;20240;-89
2023/06/12 05:01:14;;;;;;;11.02;3.55;;;16.70;99.90;;;;;;4905710;29;20051;-88
2023/06/12 05:03:40;;;;;;;9.63;3.55;;;16.70;99.90;;;;;;4906936;29;20051;-88
2023/06/12 05:06:07;;;;;;;8.88;3.42;;;16.80;99.90;;;;;;4915937;29;20074;-88
2023/06/12 05:08:35;;;;;;;6.32;3.15;;;16.80;99.90;;;;;;4917996;29;20089;-88
2023/06/12 05:11:00;;;;;;;12.32;4.20;;;16.90;99.90;;;;;;4906201;29;20044;-88
2023/06/12 05:13:26;;;;;;;14.50;3.55;;;17.00;99.90;;;;;;4931189;29;20185;-87
2023/06/12 05:15:52;;;;;;;14.07;3.72;;;17.10;99.90;;;;;;4917343;29;20051;-88
2023/06/12 05:18:17;;;;;;;14.10;3.90;;;17.10;99.90;;;;;;4928904;29;20051;-88
2023/06/12 05:20:43;;;;;;;13.18;3.33;;;17.20;99.90;;;;;;4906262;29;20415;-89
2023/06/12 05:23:09;;;;;;;9.80;3.60;;;17.30;99.90;;;;;;4917569;29;20499;-88
2023/06/12 05:25:35;;;;;;;12.55;3.85;;;17.40;99.90;;;;;;4936920;28;20102;-89
2023/06/12 05:28:00;;;;;;;11.60;3.50;;;17.50;99.90;;;;;;4920134;29;20073;-88
2023/06/12 05:30:28;;;;;;;9.00;3.88;;;17.50;99.90;;;;;;4924406;28;20529;-88
2023/06/12 05:32:54;;;;;;;8.93;3.30;;;17.50;99.90;;;;;;4919368;29;20050;-87
2023/06/12 05:35:20;;;;;;;10.32;3.40;;;17.70;99.90;;;;;;4913978;29;20491;-88
2023/06/12 05:37:46;;;;;;;8.65;3.38;;;17.80;99.90;;;;;;4917966;29;20039;-88
2023/06/12 05:40:13;;;;;;;18.70;4.00;;;17.90;99.90;;;;;;4916209;29;20130;-88
2023/06/12 05:42:39;;;;;;;13.80;3.78;;;18.00;99.90;;;;;;4920150;29;20530;-88
2023/06/12 05:45:05;;;;;;;12.02;3.78;;;18.10;99.90;;;;;;4932633;29;20496;-88
2023/06/12 05:47:33;;;;;;;12.07;3.70;;;18.20;99.90;;;;;;4917430;29;20075;-88
2023/06/12 05:49:59;;;;;;;15.77;3.47;;;18.20;99.90;;;;;;4933119;29;20129;-88
2023/06/12 05:52:25;;;;;;;12.00;3.63;;;18.30;99.90;;;;;;4916057;29;20109;-87
2023/06/12 05:54:51;;;;;;;13.25;3.88;;;18.50;99.90;;;;;;4917570;29;20063;-89
2023/06/12 05:57:17;;;;;;;12.43;3.47;;;18.50;99.90;;;;;;4917086;29;20042;-88
2023/06/12 05:59:44;;;;;;;10.23;3.83;;;18.60;99.90;;;;;;4932255;29;20058;-88
2023/06/12 06:02:10;;;;;;;11.70;3.85;;;18.60;99.90;;;;;;4933217;29;20035;-88
2023/06/12 06:04:36;;;;;;;7.97;3.38;;;18.70;99.90;;;;;;4921484;29;20090;-88
2023/06/12 06:07:02;;;;;;;14.68;3.67;;;18.80;99.90;;;;;;4919725;29;20054;-88
2023/06/12 06:09:28;;;;;;;16.85;3.65;;;18.90;99.90;;;;;;4919944;29;20047;-88
2023/06/12 06:11:54;;;;;;;11.15;3.95;;;19.00;99.90;;;;;;4921472;29;20125;-89
2023/06/12 06:14:21;;;;;;;14.57;4.55;;;19.10;99.90;;;;;;4935372;29;20051;-89
2023/06/12 06:16:47;;;;;;;22.25;4.18;;;19.20;99.90;;;;;;4921123;29;20047;-87
2023/06/12 06:19:13;;;;;;;12.40;3.70;;;19.30;99.90;;;;;;4920809;29;20043;-88
2023/06/12 06:21:38;;;;;;;13.70;3.72;;;19.30;99.90;;;;;;4919722;29;20047;-88
2023/06/12 06:24:19;;;;;;;17.27;4.07;;;19.40;99.90;;;;;;4920214;29;20055;-88
2023/06/12 06:26:45;;;;;;;20.90;3.80;;;19.40;99.90;;;;;;4920152;29;20051;-88
2023/06/12 06:29:11;;;;;;;10.98;3.85;;;19.60;99.90;;;;;;4920199;29;20106;-89
2023/06/12 06:31:37;;;;;;;11.23;4.00;;;19.70;99.90;;;;;;4920471;29;20066;-89
2023/06/12 06:34:02;;;;;;;14.50;3.55;;;19.70;99.90;;;;;;4920924;29;20067;-88
2023/06/12 06:36:39;;;;;;;16.08;3.85;;;19.70;99.90;;;;;;4911355;29;20110;-88
2023/06/12 06:39:04;;;;;;;12.15;3.83;;;19.80;99.90;;;;;;4920473;28;20502;-90
2023/06/12 06:41:37;;;;;;;8.50;3.78;;;19.90;99.90;;;;;;4920436;29;20035;-89
2023/06/12 06:44:03;;;;;;;10.55;3.72;;;19.90;99.90;;;;;;4920114;29;20051;-89
2023/06/12 06:46:29;;;;;;;10.13;3.70;;;20.00;99.90;;;;;;4921101;29;20042;-88
2023/06/12 06:48:55;;;;;;;9.38;3.53;;;20.00;99.90;;;;;;4920147;29;20419;-89
2023/06/12 06:51:21;;;;;;;10.10;3.50;;;20.10;99.90;;;;;;4920015;29;20054;-89
2023/06/12 06:53:46;;;;;;;16.05;3.92;;;20.20;99.90;;;;;;4920144;29;20062;-89
2023/06/12 06:56:12;;;;;;;9.00;2.92;;;20.20;99.90;;;;;;4900832;29;20476;-88
2023/06/12 06:58:40;;;;;;;17.60;4.20;;;20.40;99.90;;;;;;4916610;29;20553;-89
2023/06/12 07:01:06;;;;;;;9.63;3.78;;;20.50;99.90;;;;;;4920752;29;20121;-89
2023/06/12 07:03:33;;;;;;;11.35;3.92;;;20.60;99.90;;;;;;4907443;29;20047;-89
2023/06/12 07:05:58;;;;;;;13.45;4.15;;;20.60;99.90;;;;;;4920930;29;20058;-89
2023/06/12 07:08:24;;;;;;;10.75;3.90;;;20.80;99.90;;;;;;4919628;29;20403;-88
2023/06/12 07:10:50;;;;;;;15.40;3.60;;;20.90;99.90;;;;;;4919340;29;20095;-88
2023/06/12 07:13:16;;;;;;;15.00;3.95;;;21.00;99.90;;;;;;4919921;29;20043;-89
2023/06/12 07:15:42;;;;;;;11.70;3.78;;;21.00;99.90;;;;;;4919783;29;20047;-89
2023/06/12 07:18:09;;;;;;;8.70;3.67;;;21.10;99.90;;;;;;4920062;29;20046;-90
2023/06/12 07:20:35;;;;;;;8.90;3.50;;;21.10;99.90;;;;;;4922043;29;20046;-89
2023/06/12 07:23:00;;;;;;;16.58;3.72;;;21.20;99.90;;;;;;4910433;29;20055;-89
2023/06/12 07:25:26;;;;;;;12.57;3.50;;;21.30;99.90;;;;;;4909881;29;20047;-89
2023/06/12 07:27:52;;;;;;;10.93;4.00;;;21.40;99.90;;;;;;4916755;29;20043;-89
2023/06/12 07:30:18;;;;;;;14.98;3.85;;;21.60;99.90;;;;;;4931974;28;20054;-89
2023/06/12 07:32:43;;;;;;;13.90;4.13;;;21.70;99.90;;;;;;4910660;29;20130;-90
2023/06/12 07:35:09;;;;;;;9.38;3.63;;;21.80;99.90;;;;;;4917186;29;20070;-89
2023/06/12 07:37:35;;;;;;;14.55;3.83;;;21.90;99.90;;;;;;4913933;29;20035;-89
2023/06/12 07:40:04;;;;;;;11.38;3.53;;;22.00;99.90;;;;;;4910442;29;20415;-89
2023/06/12 07:42:30;;;;;;;10.50;3.55;;;22.10;99.90;;;;;;4919929;29;20517;-89
2023/06/12 07:44:59;;;;;;;12.27;3.83;;;22.10;99.90;;;;;;4918585;29;20043;-88
2023/06/12 07:47:28;;;;;;;17.57;4.00;;;22.20;99.90;;;;;;4919604;29;20287;-89
2023/06/12 07:49:54;;;;;;;7.15;3.50;;;22.30;99.90;;;;;;4922041;28;20090;-88
2023/06/12 07:52:20;;;;;;;12.45;3.55;;;22.40;99.90;;;;;;4921153;29;20043;-89
2023/06/12 07:54:47;;;;;;;7.10;3.42;;;22.40;99.90;;;;;;4918396;29;20078;-89
2023/06/12 07:57:13;;;;;;;10.55;3.60;;;22.50;99.90;;;;;;4919324;29;20051;-89
2023/06/12 07:59:39;;;;;;;10.68;3.60;;;22.60;99.90;;;;;;4919376;29;20394;-89
2023/06/12 08:02:06;;;;;;;12.35;3.60;;;22.60;99.90;;;;;;4919005;29;20039;-89
2023/06/12 08:04:33;;;;;;;14.82;3.80;;;22.70;99.90;;;;;;4922244;28;20110;-88
2023/06/12 08:07:00;;;;;;;12.20;4.05;;;22.70;99.90;;;;;;4921130;29;20047;-89
2023/06/12 08:09:26;;;;;;;19.90;4.35;;;22.80;99.90;;;;;;4926935;29;20058;-92
2023/06/12 08:11:52;;;;;;;12.05;3.97;;;22.80;99.90;;;;;;4919337;29;20094;-93
2023/06/12 08:14:24;;;;;;;7.50;3.72;;;22.90;99.90;;;;;;4919036;29;20050;-94
2023/06/12 08:16:50;;;;;;;8.68;3.55;;;23.00;99.90;;;;;;4919399;29;20130;-93
2023/06/12 08:19:16;;;;;;;11.05;3.80;;;23.00;99.90;;;;;;4919840;29;20039;-93
2023/06/12 08:21:42;;;;;;;9.48;3.75;;;23.00;99.90;;;;;;4909724;28;20050;-94
2023/06/12 08:24:14;;;;;;;11.85;3.95;;;22.70;99.90;;;;;;4925928;29;20503;-93
2023/06/12 08:26:42;;;;;;;8.48;3.83;;;23.20;99.90;;;;;;4919720;29;20059;-93
2023/06/12 08:29:08;;;;;;;6.82;3.35;;;23.30;99.90;;;;;;4918053;29;20474;-93
2023/06/12 08:31:37;;;;;;;12.20;3.88;;;23.30;99.90;;;;;;4934832;29;20050;-93
2023/06/12 08:34:06;;;;;;;11.68;3.70;;;23.40;99.90;;;;;;4934754;29;20062;-93
2023/06/12 08:36:35;;;;;;;8.23;4.40;;;23.50;99.90;;;;;;4916189;29;20043;-93
2023/06/12 08:39:01;;;;;;;10.30;3.90;;;23.50;99.90;;;;;;4918230;29;20047;-92
2023/06/12 08:41:40;;;;;;;8.98;3.67;;;23.60;99.90;;;;;;4906902;29;20050;-93
2023/06/12 08:44:08;;;;;;;15.52;4.28;;;23.70;99.90;;;;;;4919640;29;20059;-92
2023/06/12 08:46:34;;;;;;;13.85;3.60;;;23.80;99.90;;;;;;4918939;29;20050;-93
2023/06/12 08:49:00;;;;;;;9.50;3.60;;;23.90;99.90;;;;;;4917890;29;20048;-92
2023/06/12 08:51:29;;;;;;;9.68;4.03;;;24.00;99.90;;;;;;4918945;29;20133;-93
2023/06/12 08:53:56;;;;;;;12.75;3.95;;;24.00;99.90;;;;;;4916256;29;20035;-93
2023/06/12 08:56:22;;;;;;;10.35;3.95;;;24.10;99.90;;;;;;4908854;29;20265;-94
2023/06/12 08:58:48;;;;;;;8.52;4.22;;;24.20;99.90;;;;;;4903924;29;20130;-93
2023/06/12 09:01:14;;;;;;;8.25;3.58;;;24.30;99.90;;;;;;4910312;29;20035;-93
2023/06/12 09:03:48;;;;;;;10.20;3.70;;;24.30;99.90;;;;;;4920131;29;20057;-92
2023/06/12 09:06:16;;;;;;;14.10;4.03;;;24.40;99.90;;;;;;4920211;29;20130;-94
2023/06/12 09:08:42;;;;;;;10.25;3.92;;;24.40;99.90;;;;;;4919950;29;20506;-94
2023/06/12 09:11:08;;;;;;;10.98;3.97;;;24.50;99.90;;;;;;4918943;29;20141;-93
2023/06/12 09:13:41;;;;;;;8.90;3.60;;;24.60;99.90;;;;;;4919145;29;20479;-93
2023/06/12 09:16:20;;;;;;;9.93;3.70;;;24.60;99.90;;;;;;4919219;29;20051;-93
2023/06/12 09:18:56;;;;;;;34.35;5.10;;;24.80;99.90;;;;;;4909301;29;20491;-93
2023/06/12 09:21:22;;;;;;;19.20;4.57;;;24.90;99.90;;;;;;4925765;29;20043;-93
2023/06/12 09:23:52;;;;;;;9.43;3.88;;;24.90;99.90;;;;;;4918075;29;20519;-93
2023/06/12 09:26:22;;;;;;;9.85;3.45;;;24.90;99.90;;;;;;4915676;29;20414;-93
2023/06/12 09:28:52;;;;;;;10.43;3.78;;;25.00;99.90;;;;;;4912265;29;20074;-93
2023/06/12 09:31:19;;;;;;;11.80;4.07;;;25.10;99.90;;;;;;4915354;29;20244;-94
2023/06/12 09:33:45;;;;;;;8.48;3.65;;;25.10;99.90;;;;;;4925795;28;20050;-94
2023/06/12 09:36:12;;;;;;;10.23;3.85;;;25.20;99.90;;;;;;4918967;29;20039;-92
2023/06/12 09:38:38;;;;;;;10.27;3.90;;;25.30;99.90;;;;;;4922254;29;20046;-93
2023/06/12 09:41:06;;;;;;;9.23;3.75;;;25.40;99.90;;;;;;4921234;29;20054;-92
2023/06/12 09:43:33;;;;;;;7.40;3.90;;;25.50;99.90;;;;;;4922384;29;20163;-93
2023/06/12 09:46:02;;;;;;;7.40;3.60;;;25.60;99.90;;;;;;4921477;29;20498;-92
2023/06/12 09:48:33;;;;;;;14.32;3.95;;;25.60;99.90;;;;;;4921971;29;20079;-93
2023/06/12 09:51:04;;;;;;;10.00;4.15;;;25.60;99.90;;;;;;4921803;29;20055;-93
2023/06/12 09:53:30;;;;;;;11.35;3.35;;;25.60;99.90;;;;;;4921942;29;20418;-92
2023/06/12 09:55:57;;;;;;;9.18;4.07;;;25.70;99.90;;;;;;4921362;29;20082;-93
2023/06/12 09:59:18;;;;;;;11.55;3.75;;;25.70;99.90;;;;;;4927407;29;20050;-96
2023/06/12 10:01:51;;;;;;;8.38;3.63;;;25.80;99.90;;;;;;4868265;29;20051;-96
2023/06/12 10:04:38;;;;;;;;;;;;;;;;;;;;;
2023/06/12 10:10:44;;;;;;;10.82;3.72;;;26.00;99.90;;;;;;4942164;29;20111;-96
2023/06/12 10:13:44;;;;;;;16.25;3.35;;;26.20;99.90;;;;;;4897726;29;20472;-95
2023/06/12 10:20:10;;;;;;;9.85;3.70;;;26.70;99.90;;;;;;4866508;29;20044;-94
2023/06/12 10:26:26;;;;;;;7.72;3.95;;;26.80;99.90;;;;;;5037500;23;20106;-94
2023/06/12 10:29:38;;;;;;;13.10;3.58;;;26.60;99.90;;;;;;4932843;29;20134;-95
2023/06/12 10:32:39;;;;;;;9.43;3.38;;;26.90;99.90;;;;;;4932443;29;20554;-95
2023/06/12 10:35:42;;;;;;;11.07;3.72;;;27.00;99.90;;;;;;4915337;23;20072;-95
2023/06/12 10:41:44;;;;;;;6.45;3.65;;;27.00;99.90;;;;;;4938757;29;20048;-95
2023/06/12 10:48:45;;;;;;;;;;;;;;;;;;;;;
2023/06/12 10:55:57;;;;;;;;;;;;;;;;;;;;;
2023/06/12 11:07:02;;;;;;;;;;;;;;;;;;;;;
2023/06/12 11:09:47;;;;;;;8.38;3.60;;;28.00;99.50;;;;;;4954544;28;20070;-91
2023/06/12 11:12:12;;;;;;;7.50;4.15;;;28.00;99.30;;;;;;4912854;28;20051;-88
2023/06/12 11:14:38;;;;;;;10.57;4.13;;;28.10;98.50;;;;;;4917523;29;20126;-88
2023/06/12 11:17:04;;;;;;;6.32;3.65;;;28.20;97.90;;;;;;4917917;28;20122;-90
2023/06/12 11:19:30;;;;;;;6.85;3.80;;;28.30;97.00;;;;;;4947427;28;20405;-90
2023/06/12 11:21:56;;;;;;;8.93;3.58;;;28.40;96.90;;;;;;4922235;29;20039;-89
2023/06/12 11:24:23;;;;;;;12.57;3.78;;;28.50;96.00;;;;;;4915793;28;20510;-89
2023/06/12 11:26:50;;;;;;;6.85;3.67;;;28.50;95.60;;;;;;4921607;29;20047;-89
2023/06/12 11:29:17;;;;;;;6.15;3.33;;;28.60;95.70;;;;;;4921663;29;20115;-88
2023/06/12 11:31:49;;;;;;;9.52;3.95;;;28.60;94.90;;;;;;4914356;29;20046;-90
2023/06/12 11:34:15;;;;;;;12.45;3.50;;;28.70;95.00;;;;;;4917248;29;20130;-89
2023/06/12 11:36:41;;;;;;;9.13;3.60;;;28.80;95.30;;;;;;4913174;29;20121;-89
2023/06/12 11:39:17;;;;;;;6.40;3.67;;;28.90;95.30;;;;;;4908576;29;20448;-89
2023/06/12 11:41:46;;;;;;;8.52;3.42;;;28.90;93.90;;;;;;4921365;29;20054;-89
2023/06/12 11:44:15;;;;;;;8.07;3.65;;;28.80;93.90;;;;;;4918179;29;20052;-90
2023/06/12 11:46:41;;;;;;;8.02;3.67;;;28.90;94.40;;;;;;4901817;29;20107;-88
2023/06/12 11:49:07;;;;;;;11.20;3.95;;;28.90;93.30;;;;;;4918641;29;20066;-89
2023/06/12 11:51:33;;;;;;;12.60;3.63;;;29.00;92.30;;;;;;4920471;29;20082;-89
2023/06/12 11:54:00;;;;;;;10.60;3.58;;;29.00;92.90;;;;;;4921030;29;20061;-88
2023/06/12 11:56:25;;;;;;;16.05;4.03;;;29.00;93.40;;;;;;4920987;29;20047;-89
2023/06/12 11:58:51;;;;;;;9.25;4.05;;;29.10;92.60;;;;;;4919651;29;20086;-89
2023/06/12 12:01:23;;;;;;;13.13;4.22;;;29.10;92.90;;;;;;4919928;29;20101;-89
2023/06/12 12:03:50;;;;;;;7.40;4.03;;;29.20;92.70;;;;;;4951396;29;20047;-91
2023/06/12 12:06:17;;;;;;;10.00;3.55;;;29.30;91.60;;;;;;4920393;29;20126;-91
2023/06/12 12:08:43;;;;;;;8.15;3.70;;;29.30;90.90;;;;;;4918717;29;20055;-90
2023/06/12 12:11:17;;;;;;;6.30;3.72;;;29.40;90.90;;;;;;4936103;29;20064;-89
2023/06/12 12:13:50;;;;;;;10.52;4.57;;;29.40;90.00;;;;;;4920575;29;20694;-90
2023/06/12 12:16:21;;;;;;;7.22;3.72;;;29.40;90.60;;;;;;4923511;29;20119;-90
2023/06/12 12:18:46;;;;;;;8.32;3.83;;;29.60;90.40;;;;;;4925521;29;20051;-91
2023/06/12 12:21:14;;;;;;;5.93;3.38;;;29.70;90.00;;;;;;4921326;29;20126;-91
2023/06/12 12:23:41;;;;;;;7.45;3.35;;;29.70;90.00;;;;;;4918128;29;20055;-90
2023/06/12 12:26:12;;;;;;;8.52;3.72;;;29.70;88.80;;;;;;4917354;29;20137;-91
2023/06/12 12:28:38;;;;;;;6.85;4.03;;;29.70;87.30;;;;;;4912708;29;20202;-90
2023/06/12 12:31:04;;;;;;;8.88;3.95;;;29.70;86.70;;;;;;4922216;29;20539;-89
2023/06/12 12:33:29;;;;;;;12.98;3.53;;;29.70;86.00;;;;;;4915350;29;20571;-89
2023/06/12 12:35:59;;;;;;;11.10;4.50;;;29.70;86.00;;;;;;4919775;29;20047;-89
2023/06/12 12:38:24;;;;;;;11.98;4.50;;;29.70;84.70;;;;;;4919282;29;20054;-88
2023/06/12 12:40:50;;;;;;;7.70;3.80;;;29.70;84.50;;;;;;4915740;29;20039;-88
2023/06/12 12:43:16;;;;;;;7.40;3.58;;;29.80;84.40;;;;;;4907556;29;20486;-89
2023/06/12 12:45:42;;;;;;;14.57;3.97;;;29.90;84.70;;;;;;4916123;29;20039;-88
2023/06/12 12:48:08;;;;;;;11.02;4.00;;;29.80;83.70;;;;;;4919554;29;20055;-88
2023/06/12 12:50:33;;;;;;;9.38;4.25;;;29.60;83.20;;;;;;4918081;29;20071;-88
2023/06/12 12:52:59;;;;;;;10.68;4.10;;;29.30;83.50;;;;;;4919243;29;20047;-88
2023/06/12 12:55:25;;;;;;;12.77;4.05;;;29.20;83.60;;;;;;4917841;29;20039;-89
2023/06/12 12:57:51;;;;;;;13.52;3.90;;;29.10;84.30;;;;;;4918988;29;20039;-88
2023/06/12 13:00:18;;;;;;;8.85;4.43;;;29.10;85.20;;;;;;4917189;29;20055;-88
2023/06/12 13:02:44;;;;;;;11.35;3.97;;;29.00;84.40;;;;;;4930014;29;20082;-89
2023/06/12 13:05:11;;;;;;;14.85;4.10;;;29.10;85.50;;;;;;4934915;29;20479;-89
2023/06/12 13:07:38;;;;;;;12.98;3.85;;;29.20;85.50;;;;;;4911362;29;20388;-89
2023/06/12 13:10:08;;;;;;;5.10;3.70;;;29.20;87.90;;;;;;4914639;29;20122;-89
2023/06/12 13:12:33;;;;;;;5.55;3.72;;;29.40;85.90;;;;;;4934770;29;20082;-88
2023/06/12 13:14:59;;;;;;;9.50;4.07;;;29.60;85.50;;;;;;4932583;29;20143;-89
2023/06/12 13:17:26;;;;;;;10.50;4.15;;;29.70;85.90;;;;;;4904371;29;20074;-89
2023/06/12 13:19:52;;;;;;;12.25;4.25;;;29.80;85.00;;;;;;4912974;29;20183;-88
2023/06/12 13:22:18;;;;;;;9.05;3.88;;;29.90;84.00;;;;;;4908098;29;20047;-90